createdAt,value
2018-01-05T00:00:38.718Z,943.13
2018-01-05T00:01:38.719Z,943.04
2018-01-05T00:02:38.719Z,943.19
2018-01-05T00:03:38.722Z,943.22
2018-01-05T00:04:38.726Z,943.24
2018-01-05T00:05:38.723Z,943.28
2018-01-05T00:06:38.725Z,943.25
2018-01-05T00:07:38.726Z,943.32
2018-01-05T00:08:38.727Z,943.32
2018-01-05T00:09:38.729Z,943.37
2018-01-05T00:10:38.730Z,943.34
2018-01-05T00:11:38.730Z,943.48
2018-01-05T00:12:38.733Z,943.50
2018-01-05T00:13:38.734Z,943.52
2018-01-05T00:14:38.735Z,943.47
2018-01-05T00:15:38.735Z,943.48
2018-01-05T00:16:38.736Z,943.39
2018-01-05T00:17:38.742Z,943.43
2018-01-05T00:18:38.741Z,943.45
2018-01-05T00:19:38.741Z,943.51
2018-01-05T00:20:38.742Z,943.49
2018-01-05T00:21:38.748Z,943.52
2018-01-05T00:22:38.745Z,943.54
2018-01-05T00:23:38.744Z,943.45
2018-01-05T00:24:38.748Z,943.48
2018-01-05T00:25:38.749Z,943.52
2018-01-05T00:26:38.750Z,943.59
2018-01-05T00:27:38.750Z,943.65
2018-01-05T00:28:38.752Z,943.74
2018-01-05T00:29:38.754Z,943.76
2018-01-05T00:30:38.757Z,943.74
2018-01-05T00:31:38.754Z,943.75
2018-01-05T00:32:38.757Z,943.75
2018-01-05T00:33:38.761Z,943.79
2018-01-05T00:34:38.759Z,943.77
2018-01-05T00:35:38.759Z,943.78
2018-01-05T00:36:38.762Z,943.79
2018-01-05T00:37:38.762Z,943.76
2018-01-05T00:38:38.767Z,943.78
2018-01-05T00:39:38.768Z,943.81
2018-01-05T00:40:38.772Z,943.86
2018-01-05T00:41:38.779Z,943.90
2018-01-05T00:42:38.773Z,943.91
2018-01-05T00:43:38.780Z,943.87
2018-01-05T00:44:38.778Z,943.83
2018-01-05T00:45:38.773Z,943.79
2018-01-05T00:46:38.779Z,943.80
2018-01-05T00:47:38.778Z,943.90
2018-01-05T00:48:38.781Z,943.90
2018-01-05T00:49:38.782Z,943.86
2018-01-05T00:50:38.779Z,943.92
2018-01-05T00:51:38.787Z,943.97
2018-01-05T00:52:38.785Z,944.02
2018-01-05T00:53:38.785Z,944.07
2018-01-05T00:54:38.787Z,943.98
2018-01-05T00:55:38.786Z,943.97
2018-01-05T00:56:38.786Z,943.91
2018-01-05T00:57:38.790Z,944.00
2018-01-05T00:58:38.793Z,944.04
2018-01-05T00:59:38.790Z,944.04
2018-01-05T01:00:38.790Z,944.03
2018-01-05T01:01:38.796Z,944.11
2018-01-05T01:02:38.795Z,944.14
2018-01-05T01:03:38.796Z,944.17
2018-01-05T01:04:38.794Z,944.17
2018-01-05T01:05:38.796Z,944.12
2018-01-05T01:06:38.799Z,944.15
2018-01-05T01:07:38.797Z,944.12
2018-01-05T01:08:38.801Z,944.10
2018-01-05T01:09:38.810Z,944.13
2018-01-05T01:10:38.805Z,944.16
2018-01-05T01:11:38.805Z,944.18
2018-01-05T01:12:38.803Z,944.16
2018-01-05T01:13:38.804Z,944.24
2018-01-05T01:14:38.805Z,944.23
2018-01-05T01:15:38.806Z,944.30
2018-01-05T01:16:38.807Z,944.31
2018-01-05T01:17:38.808Z,944.24
2018-01-05T01:18:38.810Z,944.26
2018-01-05T01:19:38.810Z,944.31
2018-01-05T01:20:38.813Z,944.40
2018-01-05T01:21:38.814Z,944.40
2018-01-05T01:22:38.815Z,944.41
2018-01-05T01:23:38.813Z,944.43
2018-01-05T01:24:38.815Z,944.41
2018-01-05T01:25:38.817Z,944.43
2018-01-05T01:26:38.819Z,944.44
2018-01-05T01:27:38.819Z,944.52
2018-01-05T01:28:38.820Z,944.55
2018-01-05T01:29:38.821Z,944.61
2018-01-05T01:30:38.822Z,944.63
2018-01-05T01:31:38.823Z,944.60
2018-01-05T01:32:38.825Z,944.58
2018-01-05T01:33:38.826Z,944.54
2018-01-05T01:34:38.828Z,944.59
2018-01-05T01:35:38.828Z,944.57
2018-01-05T01:36:38.830Z,944.62
2018-01-05T01:37:38.830Z,944.68
2018-01-05T01:38:38.833Z,944.68
2018-01-05T01:39:38.833Z,944.63
2018-01-05T01:40:38.834Z,944.61
2018-01-05T01:41:38.834Z,944.57
2018-01-05T01:42:38.836Z,944.56
2018-01-05T01:43:38.839Z,944.60
2018-01-05T01:44:38.837Z,944.56
2018-01-05T01:45:38.839Z,944.61
2018-01-05T01:46:38.840Z,944.64
2018-01-05T01:47:38.844Z,944.64
2018-01-05T01:48:38.844Z,944.62
2018-01-05T01:49:38.843Z,944.54
2018-01-05T01:50:38.845Z,944.58
2018-01-05T01:51:38.846Z,944.66
2018-01-05T01:52:38.845Z,944.76
2018-01-05T01:53:38.848Z,944.73
2018-01-05T01:54:38.848Z,944.74
2018-01-05T01:55:38.848Z,944.71
2018-01-05T01:56:38.850Z,944.69
2018-01-05T01:57:38.851Z,944.75
2018-01-05T01:58:38.853Z,944.76
2018-01-05T01:59:38.854Z,944.79
2018-01-05T02:00:38.855Z,944.76
2018-01-05T02:01:38.855Z,944.73
2018-01-05T02:02:38.858Z,944.72
2018-01-05T02:03:38.857Z,944.75
2018-01-05T02:04:38.858Z,944.71
2018-01-05T02:05:38.860Z,944.76
2018-01-05T02:06:38.903Z,944.75
2018-01-05T02:07:38.861Z,944.76
2018-01-05T02:08:38.864Z,944.67
2018-01-05T02:09:38.862Z,944.70
2018-01-05T02:10:38.865Z,944.74
2018-01-05T02:11:38.866Z,944.63
2018-01-05T02:12:38.867Z,944.66
2018-01-05T02:13:38.868Z,944.78
2018-01-05T02:14:38.871Z,944.70
2018-01-05T02:15:38.871Z,944.71
2018-01-05T02:16:38.870Z,944.81
2018-01-05T02:17:38.877Z,944.83
2018-01-05T02:18:38.873Z,944.83
2018-01-05T02:19:38.872Z,944.81
2018-01-05T02:20:38.875Z,944.81
2018-01-05T02:21:38.877Z,944.89
2018-01-05T02:22:38.877Z,944.80
2018-01-05T02:23:38.878Z,944.73
2018-01-05T02:24:38.879Z,944.72
2018-01-05T02:25:38.880Z,944.70
2018-01-05T02:26:38.882Z,944.86
2018-01-05T02:27:38.882Z,944.83
2018-01-05T02:28:38.883Z,944.80
2018-01-05T02:29:38.885Z,944.87
2018-01-05T02:30:38.886Z,944.84
2018-01-05T02:31:38.887Z,944.82
2018-01-05T02:32:38.887Z,944.86
2018-01-05T02:33:38.888Z,944.82
2018-01-05T02:34:38.890Z,944.80
2018-01-05T02:35:38.890Z,944.85
2018-01-05T02:36:38.892Z,944.82
2018-01-05T02:37:38.893Z,944.71
2018-01-05T02:38:38.897Z,944.72
2018-01-05T02:39:38.894Z,944.69
2018-01-05T02:40:38.897Z,944.69
2018-01-05T02:41:38.897Z,944.71
2018-01-05T02:42:38.898Z,944.73
2018-01-05T02:43:38.899Z,944.70
2018-01-05T02:44:38.900Z,944.73
2018-01-05T02:45:38.902Z,944.78
2018-01-05T02:46:38.902Z,944.70
2018-01-05T02:47:38.905Z,944.70
2018-01-05T02:48:38.904Z,944.72
2018-01-05T02:49:38.904Z,944.71
2018-01-05T02:50:38.906Z,944.74
2018-01-05T02:51:38.907Z,944.82
2018-01-05T02:52:38.907Z,944.78
2018-01-05T02:53:38.910Z,944.82
2018-01-05T02:54:38.911Z,944.80
2018-01-05T02:55:38.910Z,944.78
2018-01-05T02:56:38.912Z,944.83
2018-01-05T02:57:38.913Z,944.80
2018-01-05T02:58:38.917Z,944.80
2018-01-05T02:59:38.922Z,944.83
2018-01-05T03:00:38.915Z,944.78
2018-01-05T03:01:38.917Z,944.77
2018-01-05T03:02:38.919Z,944.74
2018-01-05T03:03:38.918Z,944.69
2018-01-05T03:04:38.919Z,944.76
2018-01-05T03:05:38.922Z,944.71
2018-01-05T03:06:38.923Z,944.70
2018-01-05T03:07:38.924Z,944.76
2018-01-05T03:08:38.923Z,944.78
2018-01-05T03:09:38.924Z,944.77
2018-01-05T03:10:38.926Z,944.76
2018-01-05T03:11:38.926Z,944.72
2018-01-05T03:12:38.928Z,944.74
2018-01-05T03:13:38.927Z,944.69
2018-01-05T03:14:38.930Z,944.67
2018-01-05T03:15:38.930Z,944.64
2018-01-05T03:16:38.934Z,944.66
2018-01-05T03:17:38.932Z,944.74
2018-01-05T03:18:38.933Z,944.79
2018-01-05T03:19:38.934Z,944.82
2018-01-05T03:20:38.933Z,944.76
2018-01-05T03:21:38.961Z,944.73
2018-01-05T03:22:38.937Z,944.73
2018-01-05T03:23:38.938Z,944.67
2018-01-05T03:24:38.938Z,944.68
2018-01-05T03:25:38.940Z,944.70
2018-01-05T03:26:38.939Z,944.68
2018-01-05T03:27:38.942Z,944.70
2018-01-05T03:28:38.944Z,944.72
2018-01-05T03:29:38.942Z,944.69
2018-01-05T03:30:38.947Z,944.68
2018-01-05T03:31:38.946Z,944.65
2018-01-05T03:32:38.951Z,944.65
2018-01-05T03:33:38.948Z,944.63
2018-01-05T03:34:38.949Z,944.59
2018-01-05T03:35:38.949Z,944.61
2018-01-05T03:36:38.951Z,944.61
2018-01-05T03:37:38.952Z,944.57
2018-01-05T03:38:38.952Z,944.58
2018-01-05T03:39:38.953Z,944.53
2018-01-05T03:40:38.957Z,944.47
2018-01-05T03:41:38.956Z,944.43
2018-01-05T03:42:38.957Z,944.42
2018-01-05T03:43:38.957Z,944.37
2018-01-05T03:44:38.958Z,944.40
2018-01-05T03:45:38.960Z,944.43
2018-01-05T03:46:38.960Z,944.39
2018-01-05T03:47:38.961Z,944.33
2018-01-05T03:48:38.962Z,944.31
2018-01-05T03:49:38.964Z,944.31
2018-01-05T03:50:38.964Z,944.29
2018-01-05T03:51:38.965Z,944.29
2018-01-05T03:52:38.966Z,944.37
2018-01-05T03:53:38.968Z,944.37
2018-01-05T03:54:38.968Z,944.33
2018-01-05T03:55:38.969Z,944.41
2018-01-05T03:56:38.969Z,944.46
2018-01-05T03:57:38.971Z,944.47
2018-01-05T03:58:38.972Z,944.45
2018-01-05T03:59:38.972Z,944.47
2018-01-05T04:00:38.973Z,944.49
2018-01-05T04:01:38.974Z,944.47
2018-01-05T04:02:38.976Z,944.49
2018-01-05T04:03:38.976Z,944.52
2018-01-05T04:04:38.978Z,944.51
2018-01-05T04:05:38.978Z,944.47
2018-01-05T04:06:38.980Z,944.37
2018-01-05T04:07:38.980Z,944.37
2018-01-05T04:08:38.981Z,944.34
2018-01-05T04:09:38.982Z,944.32
2018-01-05T04:10:38.984Z,944.25
2018-01-05T04:11:38.984Z,944.24
2018-01-05T04:12:38.986Z,944.21
2018-01-05T04:13:38.987Z,944.24
2018-01-05T04:14:38.987Z,944.27
2018-01-05T04:15:38.988Z,944.26
2018-01-05T04:16:38.987Z,944.20
2018-01-05T04:17:38.991Z,944.14
2018-01-05T04:18:38.990Z,944.13
2018-01-05T04:19:38.991Z,944.10
2018-01-05T04:20:38.992Z,944.07
2018-01-05T04:21:38.993Z,943.97
2018-01-05T04:22:38.994Z,943.95
2018-01-05T04:23:38.995Z,944.01
2018-01-05T04:24:38.998Z,944.02
2018-01-05T04:25:38.997Z,943.94
2018-01-05T04:26:38.996Z,943.98
2018-01-05T04:27:38.999Z,943.93
2018-01-05T04:28:39.001Z,943.97
2018-01-05T04:29:39.002Z,943.94
2018-01-05T04:30:39.003Z,943.96
2018-01-05T04:31:39.003Z,943.96
2018-01-05T04:32:39.003Z,943.96
2018-01-05T04:33:39.003Z,943.92
2018-01-05T04:34:39.010Z,943.96
2018-01-05T04:35:39.006Z,943.93
2018-01-05T04:36:39.008Z,943.95
2018-01-05T04:37:39.008Z,943.92
2018-01-05T04:38:39.013Z,943.92
2018-01-05T04:39:39.009Z,943.90
2018-01-05T04:40:39.011Z,943.87
2018-01-05T04:41:39.012Z,943.83
2018-01-05T04:42:39.016Z,943.80
2018-01-05T04:43:39.013Z,943.84
2018-01-05T04:44:39.014Z,943.85
2018-01-05T04:45:39.016Z,943.84
2018-01-05T04:46:39.017Z,943.83
2018-01-05T04:47:39.017Z,943.83
2018-01-05T04:48:39.018Z,943.82
2018-01-05T04:49:39.019Z,943.85
2018-01-05T04:50:39.021Z,943.86
2018-01-05T04:51:39.021Z,943.91
2018-01-05T04:52:39.021Z,943.95
2018-01-05T04:53:39.023Z,943.99
2018-01-05T04:54:39.024Z,944.00
2018-01-05T04:55:39.026Z,943.97
2018-01-05T04:56:39.025Z,943.98
2018-01-05T04:57:39.027Z,943.95
2018-01-05T04:58:39.028Z,943.89
2018-01-05T04:59:39.028Z,943.87
2018-01-05T05:00:39.029Z,943.87
2018-01-05T05:01:39.030Z,943.87
2018-01-05T05:02:39.032Z,943.81
2018-01-05T05:03:39.031Z,943.88
2018-01-05T05:04:39.038Z,943.90
2018-01-05T05:05:39.036Z,943.80
2018-01-05T05:06:39.036Z,943.77
2018-01-05T05:07:39.036Z,943.80
2018-01-05T05:08:39.037Z,943.80
2018-01-05T05:09:39.039Z,943.84
2018-01-05T05:10:39.038Z,943.83
2018-01-05T05:11:39.039Z,943.87
2018-01-05T05:12:39.040Z,943.81
2018-01-05T05:13:39.041Z,943.79
2018-01-05T05:14:39.044Z,943.78
2018-01-05T05:15:39.043Z,943.78
2018-01-05T05:16:39.044Z,943.85
2018-01-05T05:17:39.045Z,943.83
2018-01-05T05:18:39.046Z,943.74
2018-01-05T05:19:39.047Z,943.76
2018-01-05T05:20:39.047Z,943.72
2018-01-05T05:21:39.049Z,943.65
2018-01-05T05:22:39.051Z,943.57
2018-01-05T05:23:39.051Z,943.58
2018-01-05T05:24:39.051Z,943.58
2018-01-05T05:25:39.052Z,943.46
2018-01-05T05:26:39.053Z,943.49
2018-01-05T05:27:39.059Z,943.45
2018-01-05T05:28:39.055Z,943.43
2018-01-05T05:29:39.056Z,943.46
2018-01-05T05:30:39.057Z,943.44
2018-01-05T05:31:39.057Z,943.45
2018-01-05T05:32:39.060Z,943.50
2018-01-05T05:33:39.059Z,943.48
2018-01-05T05:34:39.061Z,943.46
2018-01-05T05:35:39.061Z,943.45
2018-01-05T05:36:39.062Z,943.37
2018-01-05T05:37:39.064Z,943.30
2018-01-05T05:38:39.064Z,943.29
2018-01-05T05:39:39.066Z,943.27
2018-01-05T05:40:39.065Z,943.31
2018-01-05T05:41:39.066Z,943.28
2018-01-05T05:42:39.069Z,943.26
2018-01-05T05:43:39.068Z,943.21
2018-01-05T05:44:39.069Z,943.28
2018-01-05T05:45:39.070Z,943.26
2018-01-05T05:46:39.071Z,943.40
2018-01-05T05:47:39.073Z,943.43
2018-01-05T05:48:39.074Z,943.37
2018-01-05T05:49:39.076Z,943.36
2018-01-05T05:50:39.075Z,943.31
2018-01-05T05:51:39.077Z,943.32
2018-01-05T05:52:39.076Z,943.29
2018-01-05T05:53:39.075Z,943.31
2018-01-05T05:54:39.078Z,943.33
2018-01-05T05:55:39.080Z,943.35
2018-01-05T05:56:39.080Z,943.36
2018-01-05T05:57:39.082Z,943.36
2018-01-05T05:58:39.088Z,943.33
2018-01-05T05:59:39.083Z,943.35
2018-01-05T06:00:39.083Z,943.34
2018-01-05T06:01:39.085Z,943.36
2018-01-05T06:02:39.089Z,943.26
2018-01-05T06:03:39.089Z,943.24
2018-01-05T06:04:39.087Z,943.27
2018-01-05T06:05:39.088Z,943.28
2018-01-05T06:06:39.089Z,943.22
2018-01-05T06:07:39.090Z,943.25
2018-01-05T06:08:39.091Z,943.26
2018-01-05T06:09:39.092Z,943.24
2018-01-05T06:10:39.093Z,943.23
2018-01-05T06:11:39.093Z,943.23
2018-01-05T06:12:39.095Z,943.22
2018-01-05T06:13:39.095Z,943.21
2018-01-05T06:14:39.099Z,943.19
2018-01-05T06:15:39.096Z,943.19
2018-01-05T06:16:39.098Z,943.17
2018-01-05T06:17:39.099Z,943.10
2018-01-05T06:18:39.100Z,943.12
2018-01-05T06:19:39.100Z,943.12
2018-01-05T06:20:39.101Z,943.15
2018-01-05T06:21:39.101Z,943.15
2018-01-05T06:22:39.104Z,943.20
2018-01-05T06:23:39.104Z,943.15
2018-01-05T06:24:39.105Z,943.14
2018-01-05T06:25:39.106Z,943.15
2018-01-05T06:26:39.107Z,943.15
2018-01-05T06:27:39.108Z,943.09
2018-01-05T06:28:39.109Z,943.08
2018-01-05T06:29:39.109Z,943.01
2018-01-05T06:30:39.111Z,943.04
2018-01-05T06:31:39.110Z,943.02
2018-01-05T06:32:39.114Z,942.98
2018-01-05T06:33:39.112Z,942.96
2018-01-05T06:34:39.116Z,942.93
2018-01-05T06:35:39.115Z,943.02
2018-01-05T06:36:39.116Z,943.00
2018-01-05T06:37:39.118Z,943.02
2018-01-05T06:38:39.118Z,943.06
2018-01-05T06:39:39.118Z,942.97
2018-01-05T06:40:39.120Z,942.93
2018-01-05T06:41:39.120Z,942.83
2018-01-05T06:42:39.175Z,942.83
2018-01-05T06:43:39.121Z,942.76
2018-01-05T06:44:39.121Z,942.76
2018-01-05T06:45:39.125Z,942.78
2018-01-05T06:46:39.125Z,942.75
2018-01-05T06:47:39.129Z,942.80
2018-01-05T06:48:39.126Z,942.83
2018-01-05T06:49:39.127Z,942.80
2018-01-05T06:50:39.128Z,942.83
2018-01-05T06:51:39.128Z,942.80
2018-01-05T06:52:39.130Z,942.80
2018-01-05T06:53:39.132Z,942.81
2018-01-05T06:54:39.132Z,942.78
2018-01-05T06:55:39.137Z,942.75
2018-01-05T06:56:39.134Z,942.76
2018-01-05T06:57:39.134Z,942.71
2018-01-05T06:58:39.137Z,942.70
2018-01-05T06:59:39.135Z,942.68
2018-01-05T07:00:39.136Z,942.68
2018-01-05T07:01:39.137Z,942.69
2018-01-05T07:02:39.138Z,942.68
2018-01-05T07:03:39.141Z,942.64
2018-01-05T07:04:39.140Z,942.61
2018-01-05T07:05:39.142Z,942.62
2018-01-05T07:06:39.143Z,942.60
2018-01-05T07:07:39.143Z,942.65
2018-01-05T07:08:39.144Z,942.63
2018-01-05T07:09:39.144Z,942.63
2018-01-05T07:10:39.145Z,942.59
2018-01-05T07:11:39.146Z,942.58
2018-01-05T07:12:39.148Z,942.55
2018-01-05T07:13:39.148Z,942.57
2018-01-05T07:14:39.151Z,942.58
2018-01-05T07:15:39.150Z,942.51
2018-01-05T07:16:39.150Z,942.51
2018-01-05T07:17:39.154Z,942.50
2018-01-05T07:18:39.153Z,942.47
2018-01-05T07:19:39.154Z,942.52
2018-01-05T07:20:39.154Z,942.48
2018-01-05T07:21:39.155Z,942.53
2018-01-05T07:22:39.158Z,942.48
2018-01-05T07:23:39.159Z,942.43
2018-01-05T07:24:39.159Z,942.47
2018-01-05T07:25:39.160Z,942.48
2018-01-05T07:26:39.162Z,942.45
2018-01-05T07:27:39.164Z,942.48
2018-01-05T07:28:39.164Z,942.46
2018-01-05T07:29:39.165Z,942.49
2018-01-05T07:30:39.167Z,942.48
2018-01-05T07:31:39.168Z,942.50
2018-01-05T07:32:39.169Z,942.54
2018-01-05T07:33:39.170Z,942.58
2018-01-05T07:34:39.174Z,942.61
2018-01-05T07:35:39.173Z,942.64
2018-01-05T07:36:39.180Z,942.64
2018-01-05T07:37:39.176Z,942.63
2018-01-05T07:38:39.177Z,942.64
2018-01-05T07:39:39.196Z,942.64
2018-01-05T07:40:39.181Z,942.59
2018-01-05T07:41:39.181Z,942.59
2018-01-05T07:42:39.183Z,942.59
2018-01-05T07:43:39.183Z,942.60
2018-01-05T07:44:39.185Z,942.60
2018-01-05T07:45:39.186Z,942.61
2018-01-05T07:46:39.190Z,942.58
2018-01-05T07:47:39.189Z,942.58
2018-01-05T07:48:39.192Z,942.66
2018-01-05T07:49:39.192Z,942.62
2018-01-05T07:50:39.194Z,942.67
2018-01-05T07:51:39.195Z,942.69
2018-01-05T07:52:39.198Z,942.73
2018-01-05T07:53:39.198Z,942.74
2018-01-05T07:54:39.200Z,942.73
2018-01-05T07:55:39.202Z,942.75
2018-01-05T07:56:39.203Z,942.76
2018-01-05T07:57:39.204Z,942.80
2018-01-05T07:58:39.206Z,942.81
2018-01-05T07:59:39.207Z,942.78
2018-01-05T08:00:39.207Z,942.83
2018-01-05T08:01:39.210Z,942.84
2018-01-05T08:02:39.211Z,942.82
2018-01-05T08:03:39.212Z,942.77
2018-01-05T08:04:39.215Z,942.79
2018-01-05T08:05:39.216Z,942.76
2018-01-05T08:06:39.219Z,942.77
2018-01-05T08:07:39.218Z,942.81
2018-01-05T08:08:39.267Z,942.79
2018-01-05T08:09:39.222Z,942.74
2018-01-05T08:10:39.222Z,942.81
2018-01-05T08:11:39.227Z,942.79
2018-01-05T08:12:39.224Z,942.80
2018-01-05T08:13:39.228Z,942.78
2018-01-05T08:14:39.229Z,942.76
2018-01-05T08:15:39.230Z,942.74
2018-01-05T08:16:39.232Z,942.76
2018-01-05T08:17:39.234Z,942.82
2018-01-05T08:18:39.238Z,942.84
2018-01-05T08:19:39.236Z,942.88
2018-01-05T08:20:39.238Z,942.89
2018-01-05T08:21:39.242Z,942.95
2018-01-05T08:22:39.244Z,942.92
2018-01-05T08:23:39.242Z,942.91
2018-01-05T08:24:39.244Z,942.91
2018-01-05T08:25:39.246Z,942.99
2018-01-05T08:26:39.252Z,942.93
2018-01-05T08:27:39.248Z,942.93
2018-01-05T08:28:39.250Z,942.84
2018-01-05T08:29:39.259Z,942.89
2018-01-05T08:30:39.253Z,942.83
2018-01-05T08:31:39.258Z,942.79
2018-01-05T08:32:39.258Z,942.78
2018-01-05T08:33:39.258Z,942.78
2018-01-05T08:34:39.261Z,942.75
2018-01-05T08:35:39.261Z,942.76
2018-01-05T08:36:39.262Z,942.76
2018-01-05T08:37:39.265Z,942.71
2018-01-05T08:38:39.265Z,942.70
2018-01-05T08:39:39.268Z,942.70
2018-01-05T08:40:39.267Z,942.68
2018-01-05T08:41:39.269Z,942.67
2018-01-05T08:42:39.318Z,942.65
2018-01-05T08:43:39.272Z,942.61
2018-01-05T08:44:39.274Z,942.68
2018-01-05T08:45:39.278Z,942.71
2018-01-05T08:46:39.277Z,942.64
2018-01-05T08:47:39.281Z,942.62
2018-01-05T08:48:39.280Z,942.63
2018-01-05T08:49:39.288Z,942.61
2018-01-05T08:50:39.288Z,942.60
2018-01-05T08:51:39.288Z,942.58
2018-01-05T08:52:39.289Z,942.61
2018-01-05T08:53:39.288Z,942.55
2018-01-05T08:54:39.290Z,942.56
2018-01-05T08:55:39.290Z,942.58
2018-01-05T08:56:39.292Z,942.57
2018-01-05T08:57:39.296Z,942.60
2018-01-05T08:58:39.298Z,942.71
2018-01-05T08:59:39.297Z,942.50
2018-01-05T09:00:39.299Z,942.48
2018-01-05T09:01:39.300Z,942.49
2018-01-05T09:02:39.303Z,942.47
2018-01-05T09:03:39.303Z,942.53
2018-01-05T09:04:39.327Z,942.51
2018-01-05T09:05:39.308Z,942.49
2018-01-05T09:06:39.307Z,942.49
2018-01-05T09:07:39.309Z,942.47
2018-01-05T09:08:39.310Z,942.46
2018-01-05T09:09:39.314Z,942.51
2018-01-05T09:10:39.315Z,942.56
2018-01-05T09:11:39.315Z,942.52
2018-01-05T09:12:39.317Z,942.52
2018-01-05T09:13:39.318Z,942.54
2018-01-05T09:14:39.319Z,942.52
2018-01-05T09:15:39.323Z,942.49
2018-01-05T09:16:39.328Z,942.48
2018-01-05T09:17:39.332Z,942.45
2018-01-05T09:18:39.332Z,942.42
2018-01-05T09:19:39.339Z,942.42
2018-01-05T09:20:39.331Z,942.39
2018-01-05T09:21:39.333Z,942.43
2018-01-05T09:22:39.335Z,942.39
2018-01-05T09:23:39.336Z,942.41
2018-01-05T09:24:39.338Z,942.38
2018-01-05T09:25:39.341Z,942.43
2018-01-05T09:26:39.345Z,942.41
2018-01-05T09:27:39.344Z,942.39
2018-01-05T09:28:39.345Z,942.41
2018-01-05T09:29:39.348Z,942.46
2018-01-05T09:30:39.350Z,942.43
2018-01-05T09:31:39.351Z,942.42
2018-01-05T09:32:39.354Z,942.40
2018-01-05T09:33:39.355Z,942.44
2018-01-05T09:34:39.356Z,942.47
2018-01-05T09:35:39.358Z,942.49
2018-01-05T09:36:39.364Z,942.48
2018-01-05T09:37:39.365Z,942.44
2018-01-05T09:38:39.365Z,942.42
2018-01-05T09:39:39.367Z,942.41
2018-01-05T09:40:39.371Z,942.33
2018-01-05T09:41:39.374Z,942.32
2018-01-05T09:42:39.373Z,942.47
2018-01-05T09:43:39.380Z,942.69
2018-01-05T09:44:39.378Z,942.45
2018-01-05T09:45:39.385Z,942.39
2018-01-05T09:46:39.439Z,942.43
2018-01-05T09:47:39.383Z,942.45
2018-01-05T09:48:39.384Z,942.31
2018-01-05T09:49:39.388Z,942.21
2018-01-05T09:50:39.388Z,942.17
2018-01-05T09:51:39.390Z,942.19
2018-01-05T09:52:39.391Z,942.14
2018-01-05T09:53:39.393Z,942.26
2018-01-05T09:54:39.395Z,942.28
2018-01-05T09:55:39.395Z,942.24
2018-01-05T09:56:39.399Z,942.14
2018-01-05T09:57:39.400Z,942.16
2018-01-05T09:58:39.401Z,942.15
2018-01-05T09:59:39.402Z,942.06
2018-01-05T10:00:39.404Z,942.11
2018-01-05T10:01:39.409Z,942.09
2018-01-05T10:02:39.409Z,942.12
2018-01-05T10:03:39.411Z,942.16
2018-01-05T10:04:39.412Z,942.14
2018-01-05T10:05:39.413Z,942.16
2018-01-05T10:06:39.418Z,942.15
2018-01-05T10:07:39.419Z,942.26
2018-01-05T10:08:39.420Z,942.23
2018-01-05T10:09:39.422Z,942.20
2018-01-05T10:10:39.422Z,942.23
2018-01-05T10:11:39.424Z,942.23
2018-01-05T10:12:39.447Z,942.25
2018-01-05T10:13:39.429Z,942.25
2018-01-05T10:14:39.431Z,942.21
2018-01-05T10:15:39.432Z,942.27
2018-01-05T10:16:39.434Z,942.20
2018-01-05T10:17:39.437Z,942.17
2018-01-05T10:18:39.439Z,942.20
2018-01-05T10:19:39.441Z,942.14
2018-01-05T10:20:39.443Z,942.15
2018-01-05T10:21:39.486Z,942.16
2018-01-05T10:22:39.447Z,942.19
2018-01-05T10:23:39.449Z,942.17
2018-01-05T10:24:39.452Z,942.13
2018-01-05T10:25:39.454Z,942.08
2018-01-05T10:26:39.456Z,942.05
2018-01-05T10:27:39.458Z,942.05
2018-01-05T10:28:39.461Z,942.00
2018-01-05T10:29:39.463Z,942.02
2018-01-05T10:30:39.465Z,941.98
2018-01-05T10:31:39.467Z,942.04
2018-01-05T10:32:39.471Z,942.01
2018-01-05T10:33:39.471Z,941.95
2018-01-05T10:34:39.474Z,941.91
2018-01-05T10:35:39.474Z,941.88
2018-01-05T10:36:39.484Z,941.95
2018-01-05T10:37:39.481Z,941.97
2018-01-05T10:38:39.484Z,941.97
2018-01-05T10:39:39.485Z,941.95
2018-01-05T10:40:39.487Z,941.94
2018-01-05T10:41:39.489Z,941.90
2018-01-05T10:42:39.493Z,941.94
2018-01-05T10:43:39.496Z,942.00
2018-01-05T10:44:39.496Z,941.92
2018-01-05T10:45:39.498Z,941.86
2018-01-05T10:46:39.500Z,941.87
2018-01-05T10:47:39.509Z,941.86
2018-01-05T10:48:39.505Z,941.84
2018-01-05T10:49:39.509Z,941.88
2018-01-05T10:50:39.511Z,941.92
2018-01-05T10:51:39.512Z,941.92
2018-01-05T10:52:39.517Z,941.87
2018-01-05T10:53:39.517Z,941.77
2018-01-05T10:54:39.527Z,941.79
2018-01-05T10:55:39.527Z,941.80
2018-01-05T10:56:39.530Z,941.69
2018-01-05T10:57:39.530Z,941.69
2018-01-05T10:58:39.530Z,941.64
2018-01-05T10:59:39.532Z,941.70
2018-01-05T11:00:39.553Z,941.68
2018-01-05T11:01:39.534Z,941.61
2018-01-05T11:02:39.538Z,941.57
2018-01-05T11:03:39.538Z,941.53
2018-01-05T11:04:39.542Z,941.47
2018-01-05T11:05:39.544Z,941.50
2018-01-05T11:06:39.547Z,941.51
2018-01-05T11:07:39.547Z,941.49
2018-01-05T11:08:39.552Z,941.55
2018-01-05T11:09:39.553Z,941.54
2018-01-05T11:10:39.556Z,941.54
2018-01-05T11:11:39.558Z,941.54
2018-01-05T11:12:39.562Z,941.59
2018-01-05T11:13:39.563Z,941.56
2018-01-05T11:14:39.565Z,941.66
2018-01-05T11:15:39.568Z,941.60
2018-01-05T11:16:39.595Z,941.66
2018-01-05T11:17:39.573Z,941.68
2018-01-05T11:18:39.574Z,941.62
2018-01-05T11:19:39.576Z,941.60
2018-01-05T11:20:39.579Z,941.62
2018-01-05T11:21:39.582Z,941.57
2018-01-05T11:22:39.584Z,941.56
2018-01-05T11:23:39.588Z,941.58
2018-01-05T11:24:39.588Z,941.54
2018-01-05T11:25:39.591Z,941.49
2018-01-05T11:26:39.595Z,941.46
2018-01-05T11:27:39.596Z,941.45
2018-01-05T11:28:39.635Z,941.42
2018-01-05T11:29:39.602Z,941.41
2018-01-05T11:30:39.603Z,941.50
2018-01-05T11:31:39.605Z,941.48
2018-01-05T11:32:39.609Z,941.46
2018-01-05T11:33:39.615Z,941.49
2018-01-05T11:34:39.613Z,941.50
2018-01-05T11:35:39.612Z,941.50
2018-01-05T11:36:39.656Z,941.45
2018-01-05T11:37:39.619Z,941.40
2018-01-05T11:38:39.621Z,941.77
2018-01-05T11:39:39.624Z,941.61
2018-01-05T11:40:39.624Z,941.53
2018-01-05T11:41:39.628Z,941.44
2018-01-05T11:42:39.634Z,941.70
2018-01-05T11:43:39.631Z,941.45
2018-01-05T11:44:39.632Z,941.74
2018-01-05T11:45:39.634Z,941.42
2018-01-05T11:46:39.685Z,941.47
2018-01-05T11:47:39.638Z,941.48
2018-01-05T11:48:39.639Z,941.36
2018-01-05T11:49:39.642Z,941.49
2018-01-05T11:50:39.643Z,941.51
2018-01-05T11:51:39.644Z,941.56
2018-01-05T11:52:39.646Z,941.52
2018-01-05T11:53:39.650Z,941.43
2018-01-05T11:54:39.651Z,941.45
2018-01-05T11:55:39.652Z,941.41
2018-01-05T11:56:39.652Z,941.36
2018-01-05T11:57:39.656Z,941.37
2018-01-05T11:58:39.657Z,941.60
2018-01-05T11:59:39.660Z,941.48
2018-01-05T12:00:39.663Z,941.39
2018-01-05T12:01:39.664Z,941.38
2018-01-05T12:02:39.674Z,941.29
2018-01-05T12:03:39.669Z,941.34
2018-01-05T12:04:39.669Z,941.26
2018-01-05T12:05:39.674Z,941.21
2018-01-05T12:06:39.676Z,941.26
2018-01-05T12:07:39.677Z,941.28
2018-01-05T12:08:39.681Z,941.32
2018-01-05T12:09:39.684Z,941.33
2018-01-05T12:10:39.685Z,941.36
2018-01-05T12:11:39.686Z,941.31
2018-01-05T12:12:39.690Z,941.33
2018-01-05T12:13:39.707Z,941.32
2018-01-05T12:14:39.696Z,941.39
2018-01-05T12:15:39.698Z,941.34
2018-01-05T12:16:39.700Z,941.36
2018-01-05T12:17:39.703Z,941.35
2018-01-05T12:18:39.706Z,941.32
2018-01-05T12:19:39.707Z,941.36
2018-01-05T12:20:39.710Z,941.32
2018-01-05T12:21:39.713Z,941.32
2018-01-05T12:22:39.715Z,941.33
2018-01-05T12:23:39.717Z,941.32
2018-01-05T12:24:39.731Z,941.28
2018-01-05T12:25:39.723Z,941.30
2018-01-05T12:26:39.727Z,941.32
2018-01-05T12:27:39.726Z,941.36
2018-01-05T12:28:39.733Z,941.37